createdAt,value
2022-08-03T00:01:15.974Z,81.28
2022-08-03T00:03:42.175Z,81.69
2022-08-03T00:06:08.358Z,84.30
2022-08-03T00:08:40.208Z,85.06
2022-08-03T00:11:06.653Z,85.41
2022-08-03T00:13:32.807Z,86.81
2022-08-03T00:15:58.995Z,86.17
2022-08-03T00:18:25.188Z,87.31
2022-08-03T00:20:51.351Z,87.01
2022-08-03T00:23:17.552Z,85.26
2022-08-03T00:25:43.724Z,84.72
2022-08-03T00:28:10.111Z,84.91
2022-08-03T00:30:36.293Z,86.36
2022-08-03T00:33:02.514Z,85.98
2022-08-03T00:35:37.044Z,86.95
2022-08-03T00:38:15.214Z,89.00
2022-08-03T00:40:41.577Z,90.54
2022-08-03T00:43:07.866Z,89.89
2022-08-03T00:45:34.047Z,89.60
2022-08-03T00:48:00.226Z,90.28
2022-08-03T00:50:26.377Z,91.35
2022-08-03T00:52:52.714Z,90.51
2022-08-03T00:55:18.873Z,91.98
2022-08-03T00:57:45.057Z,93.35
2022-08-03T01:00:11.237Z,93.80
2022-08-03T01:02:37.413Z,93.57
2022-08-03T01:05:03.704Z,94.64
2022-08-03T01:07:29.883Z,95.86
2022-08-03T01:09:56.139Z,96.07
2022-08-03T01:12:22.301Z,96.17
2022-08-03T01:14:48.463Z,96.12
2022-08-03T01:17:14.757Z,96.11
2022-08-03T01:19:40.961Z,97.12
2022-08-03T01:22:07.152Z,97.96
2022-08-03T01:24:33.294Z,97.98
2022-08-03T01:26:59.590Z,98.55
2022-08-03T01:29:29.602Z,98.88
2022-08-03T01:32:54.592Z,98.04
2022-08-03T01:34:41.943Z,98.62
2022-08-03T01:37:08.095Z,99.75
2022-08-03T01:39:34.259Z,98.74
2022-08-03T01:42:00.467Z,99.33
2022-08-03T01:44:30.116Z,99.99
2022-08-03T01:46:57.005Z,99.86
2022-08-03T01:49:23.233Z,100.00
2022-08-03T01:52:02.883Z,100.00
2022-08-03T01:54:31.299Z,100.00
2022-08-03T01:56:57.473Z,97.56
2022-08-03T01:59:23.611Z,98.90
2022-08-03T02:02:28.997Z,99.59
2022-08-03T02:04:35.946Z,100.00
2022-08-03T02:07:03.382Z,100.00
2022-08-03T02:09:29.727Z,100.00
2022-08-03T02:11:55.960Z,100.00
2022-08-03T02:14:22.126Z,100.00
2022-08-03T02:16:48.276Z,100.00
2022-08-03T02:19:14.433Z,100.00
2022-08-03T02:21:56.559Z,100.00
2022-08-03T02:24:26.753Z,100.00
2022-08-03T02:26:52.939Z,100.00
2022-08-03T02:29:19.187Z,100.00
2022-08-03T02:31:45.348Z,100.00
2022-08-03T02:34:11.561Z,100.00
2022-08-03T02:36:37.710Z,100.00
2022-08-03T02:39:03.869Z,100.00
2022-08-03T02:41:30.046Z,100.00
2022-08-03T02:44:05.522Z,100.00
2022-08-03T02:46:33.439Z,100.00
2022-08-03T02:48:59.655Z,100.00
2022-08-03T02:51:45.756Z,100.00
2022-08-03T02:54:11.977Z,100.00
2022-08-03T02:56:38.131Z,100.00
2022-08-03T02:59:04.290Z,100.00
2022-08-03T03:01:30.558Z,100.00
2022-08-03T03:03:56.853Z,100.00
2022-08-03T03:06:23.035Z,100.00
2022-08-03T03:08:51.058Z,100.00
2022-08-03T03:11:17.216Z,100.00
2022-08-03T03:13:43.384Z,100.00
2022-08-03T03:16:09.655Z,100.00
2022-08-03T03:18:35.877Z,100.00
2022-08-03T03:21:02.043Z,100.00
2022-08-03T03:23:28.311Z,100.00
2022-08-03T03:25:54.480Z,100.00
2022-08-03T03:28:20.626Z,100.00
2022-08-03T03:30:52.786Z,100.00
2022-08-03T03:33:19.567Z,100.00
2022-08-03T03:35:45.788Z,100.00
2022-08-03T03:38:11.948Z,100.00
2022-08-03T03:40:38.118Z,100.00
2022-08-03T03:43:04.273Z,100.00
2022-08-03T03:45:30.483Z,100.00
2022-08-03T03:47:56.668Z,100.00
2022-08-03T03:50:22.836Z,100.00
2022-08-03T03:52:48.992Z,100.00
2022-08-03T03:55:15.170Z,100.00
2022-08-03T03:57:41.321Z,100.00
2022-08-03T04:00:07.488Z,100.00
2022-08-03T04:02:33.633Z,100.00
2022-08-03T04:04:59.799Z,100.00
2022-08-03T04:07:26.009Z,100.00
2022-08-03T04:09:52.246Z,100.00
2022-08-03T04:12:18.417Z,100.00
2022-08-03T04:14:44.681Z,100.00
2022-08-03T04:17:10.863Z,100.00
2022-08-03T04:19:37.040Z,100.00
2022-08-03T04:22:04.149Z,100.00
2022-08-03T04:24:30.312Z,100.00
2022-08-03T04:26:56.450Z,100.00
2022-08-03T04:29:22.621Z,100.00
2022-08-03T04:31:48.834Z,100.00
2022-08-03T04:34:14.974Z,100.00
2022-08-03T04:36:41.359Z,100.00
2022-08-03T04:39:07.518Z,100.00
2022-08-03T04:42:02.219Z,100.00
2022-08-03T04:44:32.214Z,100.00
2022-08-03T04:46:58.387Z,100.00
2022-08-03T04:49:24.621Z,100.00
2022-08-03T04:52:02.916Z,100.00
2022-08-03T04:54:29.090Z,100.00
2022-08-03T04:56:58.319Z,100.00
2022-08-03T04:59:24.493Z,100.00
2022-08-03T05:01:50.690Z,100.00
2022-08-03T05:04:20.075Z,100.00
2022-08-03T05:06:48.018Z,100.00
2022-08-03T05:09:39.596Z,100.00
2022-08-03T05:12:04.891Z,100.00
2022-08-03T05:14:31.083Z,100.00
2022-08-03T05:16:57.240Z,100.00
2022-08-03T05:19:23.414Z,100.00
2022-08-03T05:21:52.469Z,100.00
2022-08-03T05:24:19.247Z,100.00
2022-08-03T05:26:45.433Z,100.00
2022-08-03T05:29:11.594Z,100.00
2022-08-03T05:31:37.775Z,100.00
2022-08-03T05:34:03.937Z,100.00
2022-08-03T05:36:30.089Z,100.00
2022-08-03T05:39:00.831Z,100.00
2022-08-03T05:41:37.174Z,100.00
2022-08-03T05:44:03.774Z,100.00
2022-08-03T05:46:29.944Z,100.00
2022-08-03T05:48:56.143Z,99.11
2022-08-03T05:51:22.413Z,98.60
2022-08-03T05:53:48.583Z,94.92
2022-08-03T05:56:16.280Z,92.82
2022-08-03T05:58:42.917Z,89.16
2022-08-03T06:01:09.154Z,90.18
2022-08-03T06:03:35.382Z,88.12
2022-08-03T06:06:01.586Z,84.39
2022-08-03T06:08:27.786Z,84.80
2022-08-03T06:10:53.952Z,83.94
2022-08-03T06:13:20.138Z,78.79
2022-08-03T06:15:46.289Z,77.01
2022-08-03T06:18:12.434Z,74.00
2022-08-03T06:20:38.614Z,72.24
2022-08-03T06:23:06.207Z,75.02
2022-08-03T06:25:33.860Z,72.22
2022-08-03T06:28:00.010Z,68.46
2022-08-03T06:30:26.241Z,67.75
2022-08-03T06:32:52.655Z,67.69
2022-08-03T06:35:18.897Z,68.98
2022-08-03T06:37:45.071Z,65.12
2022-08-03T06:40:11.245Z,66.09
2022-08-03T06:42:40.190Z,64.24
2022-08-03T06:45:06.367Z,62.01
2022-08-03T06:47:32.553Z,63.96
2022-08-03T06:50:16.207Z,61.15
2022-08-03T06:52:43.644Z,59.99
2022-08-03T06:55:09.803Z,59.71
2022-08-03T06:57:35.972Z,58.27
2022-08-03T07:00:09.958Z,58.54
2022-08-03T07:02:37.889Z,58.31
2022-08-03T07:05:04.063Z,61.02
2022-08-03T07:07:30.236Z,58.51
2022-08-03T07:09:58.060Z,55.80
2022-08-03T07:12:24.520Z,54.47
2022-08-03T07:14:50.709Z,52.05
2022-08-03T07:17:16.881Z,54.78
2022-08-03T07:19:43.042Z,51.24
2022-08-03T07:22:09.254Z,53.83
2022-08-03T07:24:35.448Z,52.13
2022-08-03T07:27:01.606Z,51.68
2022-08-03T07:29:27.804Z,47.91
2022-08-03T07:31:53.996Z,48.50
2022-08-03T07:34:21.289Z,46.95
2022-08-03T07:36:47.465Z,46.50
2022-08-03T07:39:17.556Z,45.99
2022-08-03T07:41:44.330Z,47.17
2022-08-03T07:44:10.499Z,46.29
2022-08-03T07:46:36.689Z,45.27
2022-08-03T07:49:02.882Z,46.42
2022-08-03T07:51:29.076Z,46.23
2022-08-03T07:53:55.260Z,45.02
2022-08-03T07:56:21.450Z,41.17
2022-08-03T07:58:47.652Z,40.38
2022-08-03T08:01:15.139Z,44.82
2022-08-03T08:03:53.282Z,39.63
2022-08-03T08:06:19.865Z,38.60
2022-08-03T08:08:46.285Z,39.07
2022-08-03T08:11:12.447Z,40.02
2022-08-03T08:13:38.611Z,38.82
2022-08-03T08:16:04.818Z,39.30
2022-08-03T08:18:30.989Z,37.29
2022-08-03T08:20:57.210Z,37.37
2022-08-03T08:23:37.854Z,39.12
2022-08-03T08:26:09.234Z,38.27
2022-08-03T08:28:35.390Z,38.44
2022-08-03T08:31:01.568Z,37.95
2022-08-03T08:33:42.164Z,36.83
2022-08-03T08:36:15.497Z,36.87
2022-08-03T08:38:41.915Z,36.89
2022-08-03T08:41:08.072Z,38.90
2022-08-03T08:43:34.269Z,36.99
2022-08-03T08:46:00.425Z,37.38
2022-08-03T08:48:26.638Z,36.34
2022-08-03T08:50:52.817Z,37.24
2022-08-03T08:53:20.728Z,35.49
2022-08-03T08:55:58.989Z,35.36
2022-08-03T08:58:26.610Z,37.59
2022-08-03T09:00:53.106Z,36.57
2022-08-03T09:03:28.906Z,34.81
2022-08-03T09:05:56.502Z,35.67
2022-08-03T09:08:22.786Z,35.08
2022-08-03T09:10:48.946Z,35.06
2022-08-03T09:13:15.154Z,34.30
2022-08-03T09:15:41.351Z,33.20
2022-08-03T09:18:25.236Z,34.77
2022-08-03T09:20:56.706Z,33.91
2022-08-03T09:24:00.556Z,34.30
2022-08-03T09:26:09.202Z,34.13
2022-08-03T09:29:00.465Z,34.42
2022-08-03T09:31:21.542Z,33.24
2022-08-03T09:33:47.728Z,33.23
2022-08-03T09:36:14.094Z,32.80
2022-08-03T09:38:40.307Z,33.50
2022-08-03T09:41:06.532Z,32.67
2022-08-03T09:43:32.693Z,31.22
2022-08-03T09:45:58.884Z,31.65
2022-08-03T09:48:25.054Z,31.03
2022-08-03T09:50:56.844Z,29.66
2022-08-03T09:53:25.015Z,31.90
2022-08-03T09:56:34.684Z,30.24
2022-08-03T09:58:37.362Z,30.58
2022-08-03T10:01:03.633Z,30.08
2022-08-03T10:03:29.847Z,30.22
2022-08-03T10:05:59.533Z,29.29
2022-08-03T10:08:26.272Z,32.08
2022-08-03T10:10:52.426Z,31.62
2022-08-03T10:13:18.626Z,32.43
2022-08-03T10:16:23.292Z,29.67
2022-08-03T10:18:30.959Z,32.24
2022-08-03T10:20:57.129Z,31.23
2022-08-03T10:23:23.319Z,31.72
2022-08-03T10:25:49.473Z,32.04
2022-08-03T10:28:15.639Z,33.20
2022-08-03T10:30:41.856Z,30.83
2022-08-03T10:33:10.909Z,30.06
2022-08-03T10:35:54.261Z,30.83
2022-08-03T10:38:20.441Z,30.27
2022-08-03T10:40:49.585Z,32.23
2022-08-03T10:43:16.571Z,29.55
2022-08-03T10:45:42.739Z,29.61
2022-08-03T10:48:08.915Z,31.83
2022-08-03T10:50:35.115Z,30.80
2022-08-03T10:53:02.061Z,30.22
2022-08-03T10:55:39.384Z,31.25
2022-08-03T10:58:11.095Z,31.60
2022-08-03T11:00:37.598Z,31.99
2022-08-03T11:03:03.858Z,32.32
2022-08-03T11:05:30.041Z,31.60
2022-08-03T11:07:56.210Z,31.90
2022-08-03T11:10:22.390Z,31.83
2022-08-03T11:12:48.595Z,32.05
2022-08-03T11:15:14.977Z,31.23
2022-08-03T11:17:46.746Z,32.20
2022-08-03T11:20:22.261Z,31.31
2022-08-03T11:22:48.470Z,29.96
2022-08-03T11:25:53.989Z,29.68
2022-08-03T11:28:00.982Z,30.42
2022-08-03T11:30:27.620Z,31.92
2022-08-03T11:32:54.298Z,29.81
2022-08-03T11:35:20.532Z,30.37
2022-08-03T11:38:03.435Z,31.53
2022-08-03T11:40:31.372Z,32.63
2022-08-03T11:42:57.547Z,31.38
2022-08-03T11:45:23.723Z,29.74
2022-08-03T11:47:50.238Z,30.83
2022-08-03T11:50:17.737Z,28.24
2022-08-03T11:52:43.891Z,29.02
2022-08-03T11:55:10.060Z,27.86
2022-08-03T11:59:13.165Z,29.24
2022-08-03T12:00:25.854Z,28.21
2022-08-03T12:02:52.335Z,28.89
2022-08-03T12:05:18.551Z,29.57
2022-08-03T12:08:02.713Z,29.38
2022-08-03T12:10:30.891Z,29.33
2022-08-03T12:12:57.102Z,28.69
2022-08-03T12:15:23.482Z,30.15
2022-08-03T12:17:49.688Z,29.06
2022-08-03T12:20:15.889Z,29.88
2022-08-03T12:22:42.047Z,29.85
2022-08-03T12:25:08.260Z,30.66
2022-08-03T12:27:34.453Z,29.49
2022-08-03T12:30:00.660Z,29.67
2022-08-03T12:32:26.845Z,29.60
2022-08-03T12:34:53.031Z,27.73
2022-08-03T12:37:22.720Z,30.10
2022-08-03T12:40:02.698Z,29.16
2022-08-03T12:42:32.896Z,30.36
2022-08-03T12:44:59.086Z,28.53
2022-08-03T12:47:25.409Z,29.24
2022-08-03T12:49:51.602Z,28.54
2022-08-03T12:52:17.793Z,27.44
2022-08-03T12:54:46.380Z,28.32
2022-08-03T12:57:15.656Z,27.32
2022-08-03T12:59:53.293Z,27.91
2022-08-03T13:02:20.171Z,27.57
2022-08-03T13:04:52.912Z,26.85
2022-08-03T13:07:19.514Z,28.97
2022-08-03T13:09:46.334Z,28.32
2022-08-03T13:12:12.507Z,27.79
2022-08-03T13:14:38.694Z,28.58
2022-08-03T13:17:04.869Z,27.05
2022-08-03T13:19:31.036Z,26.86
2022-08-03T13:22:04.042Z,27.96
2022-08-03T13:24:31.575Z,27.61
2022-08-03T13:26:58.069Z,26.67
2022-08-03T13:29:24.253Z,28.39
2022-08-03T13:31:51.258Z,27.23
2022-08-03T13:34:20.973Z,27.13
2022-08-03T13:39:57.707Z,26.74
2022-08-03T13:42:21.949Z,26.29
2022-08-03T13:44:48.207Z,27.05
2022-08-03T13:47:14.374Z,26.19
2022-08-03T13:49:40.561Z,25.17
2022-08-03T13:52:06.739Z,27.44
2022-08-03T13:54:32.943Z,25.66
2022-08-03T13:58:01.325Z,26.05
2022-08-03T13:59:45.306Z,25.81
2022-08-03T14:02:11.550Z,28.26
2022-08-03T14:04:37.738Z,27.34
2022-08-03T14:07:03.941Z,26.54
2022-08-03T14:09:30.077Z,29.89
2022-08-03T14:12:08.379Z,27.60
2022-08-03T14:14:35.041Z,28.70
2022-08-03T14:17:01.247Z,26.44
2022-08-03T14:19:28.620Z,25.95
2022-08-03T14:22:06.141Z,28.22
2022-08-03T14:24:32.900Z,26.67
2022-08-03T14:27:08.678Z,27.36
2022-08-03T14:29:36.244Z,26.08
2022-08-03T14:32:09.686Z,26.85
2022-08-03T14:34:38.552Z,26.07
2022-08-03T14:37:04.784Z,26.82
2022-08-03T14:39:58.174Z,29.73
2022-08-03T14:42:17.134Z,28.04
2022-08-03T14:44:43.323Z,26.75
2022-08-03T14:47:09.591Z,24.96
2022-08-03T14:50:37.373Z,26.89
2022-08-03T14:52:21.947Z,26.52
2022-08-03T14:54:48.191Z,27.06
2022-08-03T14:57:14.387Z,27.49
2022-08-03T14:59:54.096Z,26.34
2022-08-03T15:02:23.997Z,28.38
2022-08-03T15:04:50.459Z,27.40
2022-08-03T15:07:16.637Z,26.05
2022-08-03T15:09:42.838Z,24.80
2022-08-03T15:12:08.999Z,27.86
2022-08-03T15:14:35.159Z,27.98
2022-08-03T15:17:04.102Z,26.17
2022-08-03T15:20:05.565Z,27.02
2022-08-03T15:22:16.479Z,25.86
2022-08-03T15:24:46.744Z,26.00
2022-08-03T15:27:12.933Z,26.81
2022-08-03T15:30:07.777Z,29.58
2022-08-03T15:32:25.305Z,26.11
2022-08-03T15:34:53.271Z,27.20
2022-08-03T15:37:19.467Z,27.33
2022-08-03T15:39:59.307Z,25.56
2022-08-03T15:42:26.781Z,26.19
2022-08-03T15:44:53.611Z,25.39
2022-08-03T15:47:21.082Z,25.38
2022-08-03T15:49:47.516Z,25.33
2022-08-03T15:52:16.211Z,24.38
2022-08-03T15:54:42.407Z,27.58
2022-08-03T15:57:08.638Z,25.44
2022-08-03T15:59:35.784Z,23.97
2022-08-03T16:02:02.029Z,24.13
2022-08-03T16:04:28.401Z,24.67
2022-08-03T16:06:54.571Z,24.11
2022-08-03T16:09:24.358Z,23.33
2022-08-03T16:12:06.901Z,24.87
2022-08-03T16:14:53.453Z,24.09
2022-08-03T16:17:20.471Z,25.58
2022-08-03T16:19:46.922Z,24.00
2022-08-03T16:22:14.705Z,24.74
2022-08-03T16:24:43.023Z,25.98
2022-08-03T16:27:17.515Z,25.91
2022-08-03T16:29:55.444Z,24.06
2022-08-03T16:32:21.602Z,25.07
2022-08-03T16:34:47.771Z,25.11
2022-08-03T16:37:36.914Z,26.21
2022-08-03T16:40:00.176Z,25.78
2022-08-03T16:42:26.381Z,27.07
2022-08-03T16:44:52.548Z,25.32
2022-08-03T16:47:22.315Z,24.99
2022-08-03T16:49:54.298Z,25.28
2022-08-03T16:52:21.850Z,28.14
2022-08-03T16:54:52.698Z,26.73
2022-08-03T16:57:58.255Z,26.87
2022-08-03T17:00:08.140Z,26.72
2022-08-03T17:02:36.696Z,27.14
2022-08-03T17:05:03.843Z,25.87
2022-08-03T17:07:30.415Z,25.63
2022-08-03T17:09:56.694Z,26.58
2022-08-03T17:12:26.015Z,27.00
2022-08-03T17:14:53.519Z,27.38
2022-08-03T17:17:19.923Z,28.25
2022-08-03T17:19:47.459Z,28.22
2022-08-03T17:22:15.943Z,29.17
2022-08-03T17:24:42.428Z,29.04
2022-08-03T17:28:41.353Z,30.53
2022-08-03T17:29:57.273Z,31.08
2022-08-03T17:32:42.387Z,30.16
2022-08-03T17:35:11.916Z,31.66
2022-08-03T17:37:58.717Z,31.42
2022-08-03T17:40:24.566Z,32.06
2022-08-03T17:42:54.421Z,31.57
2022-08-03T17:45:20.678Z,30.88
2022-08-03T17:47:57.559Z,33.07
2022-08-03T17:50:27.981Z,32.13
2022-08-03T17:52:54.999Z,32.00
2022-08-03T17:55:56.103Z,32.01
2022-08-03T17:58:07.374Z,33.71
2022-08-03T18:00:33.643Z,33.23
2022-08-03T18:03:03.317Z,33.38
2022-08-03T18:06:10.493Z,33.91
2022-08-03T18:08:16.605Z,34.23
2022-08-03T18:13:31.874Z,34.71
2022-08-03T18:18:50.671Z,34.28
2022-08-03T18:21:17.566Z,35.46
2022-08-03T18:23:43.804Z,37.32
2022-08-03T18:26:10.744Z,36.95
2022-08-03T18:28:38.709Z,37.07
2022-08-03T18:31:06.084Z,38.54
2022-08-03T18:34:20.035Z,36.84
2022-08-03T18:36:22.060Z,37.54
2022-08-03T18:38:56.919Z,38.48
2022-08-03T18:41:33.178Z,40.40
2022-08-03T18:44:08.590Z,42.07
2022-08-03T18:46:35.974Z,43.02
2022-08-03T18:49:11.310Z,44.23
2022-08-03T18:51:43.344Z,43.93
2022-08-03T18:54:57.807Z,45.19
2022-08-03T18:56:59.477Z,45.01
2022-08-03T18:59:30.155Z,45.82
2022-08-03T19:01:56.917Z,45.20
2022-08-03T19:04:25.416Z,45.61
2022-08-03T19:06:52.678Z,47.21
2022-08-03T19:09:20.187Z,46.57
2022-08-03T19:12:14.122Z,47.73
2022-08-03T19:14:32.535Z,47.56
2022-08-03T19:16:58.772Z,47.78
2022-08-03T19:19:25.015Z,49.32
2022-08-03T19:21:51.246Z,49.71
2022-08-03T19:24:17.407Z,50.60
2022-08-03T19:26:48.541Z,50.65
2022-08-03T19:29:18.431Z,51.68
2022-08-03T19:31:58.914Z,51.95
2022-08-03T19:37:22.020Z,52.74
2022-08-03T19:39:56.628Z,52.29
2022-08-03T19:42:26.844Z,53.41
2022-08-03T19:45:17.805Z,53.97
2022-08-03T19:47:44.045Z,53.55
2022-08-03T19:50:14.333Z,53.04
2022-08-03T19:55:37.741Z,53.90
2022-08-03T19:58:08.686Z,54.05
2022-08-03T20:17:03.224Z,58.68
2022-08-03T20:19:36.517Z,58.68
2022-08-03T20:22:02.816Z,59.56
2022-08-03T20:27:15.240Z,61.05
2022-08-03T20:32:40.770Z,59.72
2022-08-03T20:35:11.808Z,59.27
2022-08-03T20:37:38.160Z,59.58
2022-08-03T20:40:04.405Z,59.97
2022-08-03T20:42:30.684Z,60.53
2022-08-03T20:45:06.132Z,61.44
2022-08-03T20:47:50.329Z,61.81
2022-08-03T20:50:19.779Z,62.92
2022-08-03T20:52:57.177Z,62.61
2022-08-03T20:55:47.667Z,61.90
2022-08-03T20:58:11.763Z,63.15
2022-08-03T21:00:42.914Z,62.82
2022-08-03T21:03:09.478Z,63.72
2022-08-03T21:05:48.364Z,64.24
2022-08-03T21:08:18.219Z,64.29
2022-08-03T21:10:44.461Z,65.15
2022-08-03T21:13:04.224Z,34.97
2022-08-03T21:16:11.389Z,65.67
2022-08-03T21:18:31.924Z,66.98
2022-08-03T21:20:58.185Z,66.49
2022-08-03T21:23:39.834Z,66.49
2022-08-03T21:26:11.172Z,67.50
2022-08-03T21:28:39.879Z,67.21
2022-08-03T21:31:06.133Z,67.74
2022-08-03T21:33:32.339Z,66.98
2022-08-03T21:35:59.749Z,67.22
2022-08-03T21:38:30.253Z,68.10
2022-08-03T21:40:57.983Z,68.58
2022-08-03T21:43:24.214Z,68.08
2022-08-03T21:45:54.820Z,67.97
2022-08-03T21:48:23.529Z,69.12
2022-08-03T21:50:50.683Z,70.33
2022-08-03T21:53:17.035Z,69.62
2022-08-03T21:55:45.373Z,69.98
2022-08-03T21:58:11.616Z,70.46
2022-08-03T22:00:37.847Z,71.07
2022-08-03T22:03:11.991Z,71.42
2022-08-03T22:05:44.286Z,70.94
2022-08-03T22:08:10.549Z,70.42
2022-08-03T22:10:36.915Z,71.35
2022-08-03T22:13:03.100Z,71.69
2022-08-03T22:15:29.293Z,72.05
2022-08-03T22:17:57.221Z,73.31
2022-08-03T22:20:23.689Z,74.14
2022-08-03T22:22:55.261Z,74.93
2022-08-03T22:25:21.843Z,75.08
2022-08-03T22:27:48.220Z,75.02
2022-08-03T22:30:14.406Z,76.42
2022-08-03T22:32:40.573Z,76.44
2022-08-03T22:35:06.743Z,75.88
2022-08-03T22:37:35.814Z,77.90
2022-08-03T22:40:01.972Z,77.61
2022-08-03T22:42:28.190Z,78.98
2022-08-03T22:44:54.370Z,76.04
2022-08-03T22:47:22.861Z,75.01
2022-08-03T22:49:49.361Z,76.09
2022-08-03T22:52:35.538Z,74.74
2022-08-03T22:55:01.746Z,75.04
2022-08-03T22:57:27.948Z,74.39
2022-08-03T22:59:54.135Z,74.95
2022-08-03T23:02:21.759Z,75.63
2022-08-03T23:04:48.033Z,76.04
2022-08-03T23:07:14.219Z,76.94
2022-08-03T23:09:40.412Z,75.54
2022-08-03T23:12:06.584Z,74.49
2022-08-03T23:14:32.748Z,75.81
2022-08-03T23:16:58.931Z,77.05
2022-08-03T23:19:26.105Z,78.60
2022-08-03T23:22:00.611Z,78.34
2022-08-03T23:24:30.347Z,79.38
2022-08-03T23:26:56.664Z,79.18
2022-08-03T23:29:23.041Z,78.67
2022-08-03T23:31:49.227Z,78.83
2022-08-03T23:34:16.762Z,78.63
2022-08-03T23:36:43.101Z,78.61
2022-08-03T23:39:09.424Z,78.69
2022-08-03T23:41:35.613Z,79.22
2022-08-03T23:44:01.870Z,79.13
2022-08-03T23:46:29.880Z,78.73
2022-08-03T23:48:56.485Z,79.06
2022-08-03T23:51:22.917Z,79.80
2022-08-03T23:53:49.075Z,79.48
2022-08-03T23:56:15.457Z,80.16
2022-08-03T23:58:41.613Z,79.71
